sensor_id;sensor_type;location;lat;lon;timestamp;pressure;altitude;pressure_sealevel;temperature;humidity
33075;BME280;19433;51.292;6.868;2023-03-21T00:00:57;100520.47;;;8.79;87.66
33075;BME280;19433;51.292;6.868;2023-03-21T00:03:23;100520.47;;;8.79;88.07
33075;BME280;19433;51.292;6.868;2023-03-21T00:05:49;100516.00;;;8.78;88.45
33075;BME280;19433;51.292;6.868;2023-03-21T00:08:18;100516.28;;;8.84;88.01
33075;BME280;19433;51.292;6.868;2023-03-21T00:10:43;100511.19;;;9.16;86.45
33075;BME280;19433;51.292;6.868;2023-03-21T00:13:12;100505.25;;;8.98;87.15
33075;BME280;19433;51.292;6.868;2023-03-21T00:15:38;100508.94;;;8.91;87.84
33075;BME280;19433;51.292;6.868;2023-03-21T00:18:15;100511.91;;;8.74;88.58
33075;BME280;19433;51.292;6.868;2023-03-21T00:20:40;100509.41;;;8.94;87.84
33075;BME280;19433;51.292;6.868;2023-03-21T00:23:06;100510.09;;;8.96;87.87
33075;BME280;19433;51.292;6.868;2023-03-21T00:25:31;100505.81;;;8.94;87.98
33075;BME280;19433;51.292;6.868;2023-03-21T00:27:57;100501.34;;;8.93;88.13
33075;BME280;19433;51.292;6.868;2023-03-21T00:30:22;100500.31;;;8.94;88.12
33075;BME280;19433;51.292;6.868;2023-03-21T00:32:48;100503.44;;;8.91;88.18
33075;BME280;19433;51.292;6.868;2023-03-21T00:35:14;100491.94;;;8.87;nan
33075;BME280;19433;51.292;6.868;2023-03-21T00:37:40;100496.88;;;8.92;88.65
33075;BME280;19433;51.292;6.868;2023-03-21T00:40:06;100492.34;;;8.84;88.72
33075;BME280;19433;51.292;6.868;2023-03-21T00:42:35;100488.22;;;8.95;88.74
33075;BME280;19433;51.292;6.868;2023-03-21T00:45:01;100494.22;;;8.98;88.26
33075;BME280;19433;51.292;6.868;2023-03-21T00:47:27;100487.72;;;9.06;87.79
33075;BME280;19433;51.292;6.868;2023-03-21T00:49:52;100487.66;;;8.99;88.54
33075;BME280;19433;51.292;6.868;2023-03-21T00:52:17;100487.94;;;8.90;88.51
33075;BME280;19433;51.292;6.868;2023-03-21T00:54:43;100469.47;;;8.84;88.42
33075;BME280;19433;51.292;6.868;2023-03-21T00:57:08;100483.91;;;8.86;89.08
33075;BME280;19433;51.292;6.868;2023-03-21T00:59:33;100480.81;;;8.95;88.91
33075;BME280;19433;51.292;6.868;2023-03-21T01:01:58;100470.50;;;8.82;89.15
33075;BME280;19433;51.292;6.868;2023-03-21T01:04:26;100476.53;;;8.93;88.86
33075;BME280;19433;51.292;6.868;2023-03-21T01:06:53;100474.50;;;9.01;88.74
33075;BME280;19433;51.292;6.868;2023-03-21T01:09:21;100470.94;;;9.01;89.14
33075;BME280;19433;51.292;6.868;2023-03-21T01:11:48;100464.19;;;8.89;88.91
33075;BME280;19433;51.292;6.868;2023-03-21T01:14:14;100468.09;;;8.94;89.07
33075;BME280;19433;51.292;6.868;2023-03-21T01:16:40;100467.53;;;8.99;89.37
33075;BME280;19433;51.292;6.868;2023-03-21T01:19:07;100469.28;;;9.06;88.73
33075;BME280;19433;51.292;6.868;2023-03-21T01:21:33;100466.81;;;9.11;88.04
33075;BME280;19433;51.292;6.868;2023-03-21T01:23:58;100474.06;;;8.98;89.28
33075;BME280;19433;51.292;6.868;2023-03-21T01:26:25;100462.63;;;9.15;88.43
33075;BME280;19433;51.292;6.868;2023-03-21T01:28:51;100457.41;;;9.06;88.74
33075;BME280;19433;51.292;6.868;2023-03-21T01:31:16;100463.91;;;8.98;89.17
33075;BME280;19433;51.292;6.868;2023-03-21T01:33:42;100465.25;;;8.88;89.91
33075;BME280;19433;51.292;6.868;2023-03-21T01:36:14;100451.22;;;9.04;89.52
33075;BME280;19433;51.292;6.868;2023-03-21T01:38:40;100452.56;;;9.08;89.40
33075;BME280;19433;51.292;6.868;2023-03-21T01:41:06;100451.91;;;9.06;89.64
33075;BME280;19433;51.292;6.868;2023-03-21T01:43:35;100453.13;;;9.03;90.00
33075;BME280;19433;51.292;6.868;2023-03-21T01:46:11;100451.31;;;9.10;89.62
33075;BME280;19433;51.292;6.868;2023-03-21T01:48:47;100451.22;;;9.04;90.12
33075;BME280;19433;51.292;6.868;2023-03-21T01:51:14;100448.88;;;9.01;90.34
33075;BME280;19433;51.292;6.868;2023-03-21T01:53:40;100451.75;;;8.93;91.63
33075;BME280;19433;51.292;6.868;2023-03-21T01:56:19;100438.09;;;8.85;91.84
33075;BME280;19433;51.292;6.868;2023-03-21T01:58:48;100439.50;;;8.95;91.50
33075;BME280;19433;51.292;6.868;2023-03-21T02:01:15;100440.72;;;8.93;91.28
33075;BME280;19433;51.292;6.868;2023-03-21T02:03:43;100441.41;;;8.95;91.38
33075;BME280;19433;51.292;6.868;2023-03-21T02:06:28;100437.81;;;9.15;91.03
33075;BME280;19433;51.292;6.868;2023-03-21T02:09:02;100429.50;;;8.94;91.84
33075;BME280;19433;51.292;6.868;2023-03-21T02:11:29;100431.13;;;8.89;92.46
33075;BME280;19433;51.292;6.868;2023-03-21T02:13:57;100430.09;;;8.90;92.75
33075;BME280;19433;51.292;6.868;2023-03-21T02:16:35;100434.38;;;8.92;92.69
33075;BME280;19433;51.292;6.868;2023-03-21T02:27:22;100417.44;;;8.95;94.20
33075;BME280;19433;51.292;6.868;2023-03-21T02:37:51;100400.59;;;9.26;93.32
33075;BME280;19433;51.292;6.868;2023-03-21T02:40:30;100385.28;;;9.24;92.88
33075;BME280;19433;51.292;6.868;2023-03-21T02:43:21;100382.53;;;9.24;93.17
33075;BME280;19433;51.292;6.868;2023-03-21T02:48:36;100387.94;;;9.10;94.44
33075;BME280;19433;51.292;6.868;2023-03-21T02:51:05;100383.53;;;8.95;94.99
33075;BME280;19433;51.292;6.868;2023-03-21T02:53:35;100386.34;;;9.01;95.62
33075;BME280;19433;51.292;6.868;2023-03-21T02:56:02;100389.31;;;9.00;96.02
33075;BME280;19433;51.292;6.868;2023-03-21T02:58:29;100386.31;;;9.16;95.03
33075;BME280;19433;51.292;6.868;2023-03-21T03:00:56;100377.88;;;9.03;95.70
33075;BME280;19433;51.292;6.868;2023-03-21T03:03:22;100381.84;;;9.15;95.20
33075;BME280;19433;51.292;6.868;2023-03-21T03:05:50;100378.41;;;9.13;95.33
33075;BME280;19433;51.292;6.868;2023-03-21T03:08:31;100379.28;;;9.13;94.93
33075;BME280;19433;51.292;6.868;2023-03-21T03:11:28;100376.13;;;8.95;96.51
33075;BME280;19433;51.292;6.868;2023-03-21T03:17:34;100376.22;;;8.87;97.05
33075;BME280;19433;51.292;6.868;2023-03-21T03:22:49;100371.00;;;8.92;96.55
33075;BME280;19433;51.292;6.868;2023-03-21T03:25:20;100368.50;;;8.76;96.78
33075;BME280;19433;51.292;6.868;2023-03-21T03:27:49;100369.25;;;8.85;97.50
33075;BME280;19433;51.292;6.868;2023-03-21T03:30:17;100360.38;;;8.89;96.55
33075;BME280;19433;51.292;6.868;2023-03-21T03:32:49;100366.72;;;8.90;96.42
33075;BME280;19433;51.292;6.868;2023-03-21T03:35:19;100359.44;;;8.61;97.69
33075;BME280;19433;51.292;6.868;2023-03-21T03:37:49;100359.94;;;8.50;98.42
33075;BME280;19433;51.292;6.868;2023-03-21T03:40:23;100355.56;;;8.40;98.68
33075;BME280;19433;51.292;6.868;2023-03-21T03:42:56;100345.03;;;8.44;98.50
33075;BME280;19433;51.292;6.868;2023-03-21T03:45:29;100365.53;;;8.41;98.24
33075;BME280;19433;51.292;6.868;2023-03-21T03:48:24;100352.28;;;8.16;99.95
33075;BME280;19433;51.292;6.868;2023-03-21T03:51:21;100334.94;;;8.00;100.00
33075;BME280;19433;51.292;6.868;2023-03-21T03:54:08;100345.38;;;8.05;100.00
33075;BME280;19433;51.292;6.868;2023-03-21T03:56:35;100340.41;;;8.15;100.00
33075;BME280;19433;51.292;6.868;2023-03-21T03:59:03;100337.00;;;8.13;99.97
33075;BME280;19433;51.292;6.868;2023-03-21T04:01:29;100342.03;;;8.24;99.79
33075;BME280;19433;51.292;6.868;2023-03-21T04:03:55;100342.28;;;8.44;97.86
33075;BME280;19433;51.292;6.868;2023-03-21T04:06:20;100344.69;;;8.32;98.79
33075;BME280;19433;51.292;6.868;2023-03-21T04:08:46;100347.78;;;8.29;98.48
33075;BME280;19433;51.292;6.868;2023-03-21T04:11:13;100323.88;;;8.44;97.16
33075;BME280;19433;51.292;6.868;2023-03-21T04:13:39;100332.88;;;8.53;96.35
33075;BME280;19433;51.292;6.868;2023-03-21T04:16:05;100324.47;;;8.61;96.08
33075;BME280;19433;51.292;6.868;2023-03-21T04:18:31;100327.19;;;8.76;94.78
33075;BME280;19433;51.292;6.868;2023-03-21T04:20:56;100327.19;;;8.76;94.43
33075;BME280;19433;51.292;6.868;2023-03-21T04:23:22;100329.06;;;8.54;95.33
33075;BME280;19433;51.292;6.868;2023-03-21T04:25:47;100329.72;;;8.56;95.57
33075;BME280;19433;51.292;6.868;2023-03-21T04:28:12;100330.31;;;8.73;94.78
33075;BME280;19433;51.292;6.868;2023-03-21T04:30:38;100333.03;;;8.66;95.06
33075;BME280;19433;51.292;6.868;2023-03-21T04:33:04;100331.06;;;8.81;94.22
33075;BME280;19433;51.292;6.868;2023-03-21T04:35:29;100320.75;;;8.90;93.56
33075;BME280;19433;51.292;6.868;2023-03-21T04:37:55;100317.00;;;8.76;94.33
33075;BME280;19433;51.292;6.868;2023-03-21T04:40:20;100326.06;;;8.70;94.46
33075;BME280;19433;51.292;6.868;2023-03-21T04:42:47;100326.00;;;8.64;94.97
33075;BME280;19433;51.292;6.868;2023-03-21T04:45:14;100310.44;;;8.35;95.90
33075;BME280;19433;51.292;6.868;2023-03-21T04:47:40;100323.50;;;8.48;95.97
33075;BME280;19433;51.292;6.868;2023-03-21T04:50:07;100314.66;;;8.52;95.44
33075;BME280;19433;51.292;6.868;2023-03-21T04:52:33;100331.88;;;8.61;95.25
33075;BME280;19433;51.292;6.868;2023-03-21T04:54:58;100323.63;;;8.61;95.28
33075;BME280;19433;51.292;6.868;2023-03-21T04:57:25;100322.72;;;8.54;95.68
33075;BME280;19433;51.292;6.868;2023-03-21T04:59:51;100324.19;;;8.56;96.41
33075;BME280;19433;51.292;6.868;2023-03-21T05:02:16;100317.78;;;8.49;97.44
33075;BME280;19433;51.292;6.868;2023-03-21T05:04:41;100311.66;;;8.32;98.45
33075;BME280;19433;51.292;6.868;2023-03-21T05:07:07;100306.44;;;8.37;97.98
33075;BME280;19433;51.292;6.868;2023-03-21T05:09:32;100307.94;;;8.25;99.49
33075;BME280;19433;51.292;6.868;2023-03-21T05:11:57;100306.53;;;8.15;100.00
33075;BME280;19433;51.292;6.868;2023-03-21T05:14:25;100303.91;;;8.06;100.00
33075;BME280;19433;51.292;6.868;2023-03-21T05:16:51;100299.72;;;8.10;100.00
33075;BME280;19433;51.292;6.868;2023-03-21T05:19:22;100283.22;;;7.96;100.00
33075;BME280;19433;51.292;6.868;2023-03-21T05:21:48;100299.75;;;7.96;100.00
33075;BME280;19433;51.292;6.868;2023-03-21T05:24:20;100299.00;;;7.87;100.00
33075;BME280;19433;51.292;6.868;2023-03-21T05:26:46;100303.94;;;7.92;100.00
33075;BME280;19433;51.292;6.868;2023-03-21T05:29:17;100311.72;;;7.88;100.00
33075;BME280;19433;51.292;6.868;2023-03-21T05:31:43;100297.84;;;7.96;100.00
33075;BME280;19433;51.292;6.868;2023-03-21T05:34:11;100305.03;;;8.12;100.00
33075;BME280;19433;51.292;6.868;2023-03-21T05:36:36;100301.16;;;8.06;100.00
33075;BME280;19433;51.292;6.868;2023-03-21T05:39:02;100306.28;;;8.09;100.00
33075;BME280;19433;51.292;6.868;2023-03-21T05:41:28;100301.66;;;8.31;99.49
33075;BME280;19433;51.292;6.868;2023-03-21T05:43:53;100292.72;;;8.08;100.00
33075;BME280;19433;51.292;6.868;2023-03-21T05:46:18;100289.50;;;8.04;100.00
33075;BME280;19433;51.292;6.868;2023-03-21T05:48:44;100289.59;;;7.96;100.00
33075;BME280;19433;51.292;6.868;2023-03-21T05:51:09;100305.94;;;7.68;100.00
33075;BME280;19433;51.292;6.868;2023-03-21T05:53:34;100289.16;;;7.78;100.00
33075;BME280;19433;51.292;6.868;2023-03-21T05:56:00;100305.56;;;7.71;100.00
33075;BME280;19433;51.292;6.868;2023-03-21T05:58:33;100301.75;;;7.87;100.00
33075;BME280;19433;51.292;6.868;2023-03-21T06:00:59;100302.25;;;7.76;100.00
33075;BME280;19433;51.292;6.868;2023-03-21T06:03:24;100302.41;;;7.89;100.00
33075;BME280;19433;51.292;6.868;2023-03-21T06:05:49;100304.31;;;7.74;100.00
33075;BME280;19433;51.292;6.868;2023-03-21T06:08:15;100304.63;;;7.79;100.00
33075;BME280;19433;51.292;6.868;2023-03-21T06:10:40;100297.84;;;7.82;100.00
33075;BME280;19433;51.292;6.868;2023-03-21T06:13:05;100307.13;;;7.95;100.00
33075;BME280;19433;51.292;6.868;2023-03-21T06:15:31;100300.03;;;7.86;100.00
33075;BME280;19433;51.292;6.868;2023-03-21T06:17:57;100313.59;;;7.88;100.00
33075;BME280;19433;51.292;6.868;2023-03-21T06:20:22;100299.38;;;7.69;100.00
33075;BME280;19433;51.292;6.868;2023-03-21T06:22:47;100300.78;;;7.80;100.00
33075;BME280;19433;51.292;6.868;2023-03-21T06:25:12;100295.78;;;7.54;100.00
33075;BME280;19433;51.292;6.868;2023-03-21T06:27:38;100300.16;;;7.63;100.00
33075;BME280;19433;51.292;6.868;2023-03-21T06:30:05;100300.22;;;7.85;100.00
33075;BME280;19433;51.292;6.868;2023-03-21T06:32:31;100295.22;;;7.88;100.00
33075;BME280;19433;51.292;6.868;2023-03-21T06:34:56;100305.66;;;7.93;100.00
33075;BME280;19433;51.292;6.868;2023-03-21T06:37:22;100312.56;;;7.89;100.00
33075;BME280;19433;51.292;6.868;2023-03-21T06:39:47;100302.31;;;7.83;100.00
33075;BME280;19433;51.292;6.868;2023-03-21T06:42:13;100287.63;;;7.90;100.00
33075;BME280;19433;51.292;6.868;2023-03-21T06:44:39;100295.22;;;7.88;100.00
33075;BME280;19433;51.292;6.868;2023-03-21T06:47:04;100296.78;;;7.97;100.00
33075;BME280;19433;51.292;6.868;2023-03-21T06:49:31;100300.88;;;8.01;100.00
33075;BME280;19433;51.292;6.868;2023-03-21T06:51:56;100302.50;;;7.96;100.00
33075;BME280;19433;51.292;6.868;2023-03-21T06:54:21;100298.78;;;8.03;100.00
33075;BME280;19433;51.292;6.868;2023-03-21T06:56:47;100298.59;;;8.05;100.00
33075;BME280;19433;51.292;6.868;2023-03-21T06:59:12;100304.66;;;8.15;100.00
33075;BME280;19433;51.292;6.868;2023-03-21T07:01:38;100307.59;;;7.99;100.00
33075;BME280;19433;51.292;6.868;2023-03-21T07:04:04;100296.72;;;8.05;100.00
33075;BME280;19433;51.292;6.868;2023-03-21T07:06:30;100311.88;;;8.01;100.00
33075;BME280;19433;51.292;6.868;2023-03-21T07:08:56;100313.28;;;8.12;100.00
33075;BME280;19433;51.292;6.868;2023-03-21T07:11:22;100317.03;;;8.26;100.00
33075;BME280;19433;51.292;6.868;2023-03-21T07:13:48;100311.16;;;8.29;100.00
33075;BME280;19433;51.292;6.868;2023-03-21T07:16:15;100322.47;;;8.34;100.00
33075;BME280;19433;51.292;6.868;2023-03-21T07:18:41;100305.41;;;8.24;100.00
33075;BME280;19433;51.292;6.868;2023-03-21T07:21:08;100321.97;;;8.30;100.00
33075;BME280;19433;51.292;6.868;2023-03-21T07:23:33;100325.59;;;8.31;100.00
33075;BME280;19433;51.292;6.868;2023-03-21T07:26:01;100327.22;;;8.40;100.00
33075;BME280;19433;51.292;6.868;2023-03-21T07:28:27;100322.91;;;8.52;100.00
33075;BME280;19433;51.292;6.868;2023-03-21T07:30:55;100319.53;;;8.57;100.00
33075;BME280;19433;51.292;6.868;2023-03-21T07:33:21;100318.13;;;8.61;100.00
33075;BME280;19433;51.292;6.868;2023-03-21T07:35:48;100315.25;;;8.69;100.00
33075;BME280;19433;51.292;6.868;2023-03-21T07:38:13;100314.00;;;8.93;100.00
33075;BME280;19433;51.292;6.868;2023-03-21T07:40:41;100295.63;;;9.00;100.00
33075;BME280;19433;51.292;6.868;2023-03-21T07:43:06;100296.59;;;9.13;100.00
33075;BME280;19433;51.292;6.868;2023-03-21T07:45:31;100299.00;;;9.23;100.00
33075;BME280;19433;51.292;6.868;2023-03-21T07:47:56;100287.88;;;9.10;100.00
33075;BME280;19433;51.292;6.868;2023-03-21T07:50:22;100301.34;;;8.98;100.00
33075;BME280;19433;51.292;6.868;2023-03-21T07:52:47;100309.16;;;8.95;100.00
33075;BME280;19433;51.292;6.868;2023-03-21T07:55:12;100302.31;;;9.12;100.00
33075;BME280;19433;51.292;6.868;2023-03-21T07:57:38;100299.00;;;9.02;100.00
33075;BME280;19433;51.292;6.868;2023-03-21T08:00:04;100296.81;;;8.91;100.00
33075;BME280;19433;51.292;6.868;2023-03-21T08:02:31;100296.22;;;8.95;100.00
33075;BME280;19433;51.292;6.868;2023-03-21T08:04:56;100295.16;;;8.96;100.00
33075;BME280;19433;51.292;6.868;2023-03-21T08:07:21;100310.50;;;9.05;100.00
33075;BME280;19433;51.292;6.868;2023-03-21T08:09:46;100305.06;;;8.91;100.00
33075;BME280;19433;51.292;6.868;2023-03-21T08:12:12;100308.69;;;8.70;100.00
33075;BME280;19433;51.292;6.868;2023-03-21T08:14:37;100307.97;;;8.61;100.00
33075;BME280;19433;51.292;6.868;2023-03-21T08:17:04;100303.97;;;8.64;100.00
33075;BME280;19433;51.292;6.868;2023-03-21T08:19:30;100313.59;;;8.74;100.00
33075;BME280;19433;51.292;6.868;2023-03-21T08:21:56;100313.78;;;8.73;100.00
33075;BME280;19433;51.292;6.868;2023-03-21T08:24:24;100316.09;;;8.69;100.00
33075;BME280;19433;51.292;6.868;2023-03-21T08:26:49;100319.38;;;8.79;100.00
33075;BME280;19433;51.292;6.868;2023-03-21T08:29:15;100309.09;;;8.67;100.00
33075;BME280;19433;51.292;6.868;2023-03-21T08:31:40;100313.00;;;8.58;100.00
33075;BME280;19433;51.292;6.868;2023-03-21T08:34:06;100307.00;;;8.69;100.00
33075;BME280;19433;51.292;6.868;2023-03-21T08:36:32;100313.09;;;8.64;100.00
33075;BME280;19433;51.292;6.868;2023-03-21T08:39:01;100315.38;;;8.82;100.00
33075;BME280;19433;51.292;6.868;2023-03-21T08:41:36;100315.91;;;8.92;100.00
33075;BME280;19433;51.292;6.868;2023-03-21T08:44:03;100315.91;;;8.92;100.00
33075;BME280;19433;51.292;6.868;2023-03-21T08:46:29;100325.72;;;9.01;100.00
33075;BME280;19433;51.292;6.868;2023-03-21T08:48:55;100321.06;;;9.02;100.00
33075;BME280;19433;51.292;6.868;2023-03-21T08:51:20;100319.94;;;9.17;100.00
33075;BME280;19433;51.292;6.868;2023-03-21T08:53:46;100324.28;;;9.33;100.00
33075;BME280;19433;51.292;6.868;2023-03-21T08:56:13;100323.50;;;9.11;100.00
33075;BME280;19433;51.292;6.868;2023-03-21T08:58:38;100307.91;;;8.97;100.00
33075;BME280;19433;51.292;6.868;2023-03-21T09:01:04;100302.19;;;8.99;100.00
33075;BME280;19433;51.292;6.868;2023-03-21T09:03:31;100311.03;;;9.15;100.00
33075;BME280;19433;51.292;6.868;2023-03-21T09:05:56;100317.53;;;9.08;100.00
33075;BME280;19433;51.292;6.868;2023-03-21T09:08:23;100310.31;;;9.07;100.00
33075;BME280;19433;51.292;6.868;2023-03-21T09:10:51;100310.03;;;9.02;100.00
33075;BME280;19433;51.292;6.868;2023-03-21T09:13:17;100299.81;;;8.96;100.00
33075;BME280;19433;51.292;6.868;2023-03-21T09:15:42;100302.69;;;9.09;100.00
33075;BME280;19433;51.292;6.868;2023-03-21T09:18:09;100305.25;;;9.10;100.00
33075;BME280;19433;51.292;6.868;2023-03-21T09:20:38;100299.06;;;9.30;100.00
33075;BME280;19433;51.292;6.868;2023-03-21T09:23:04;100298.41;;;9.28;100.00
33075;BME280;19433;51.292;6.868;2023-03-21T09:25:30;100293.44;;;9.16;100.00
33075;BME280;19433;51.292;6.868;2023-03-21T09:27:57;100289.47;;;9.26;100.00
33075;BME280;19433;51.292;6.868;2023-03-21T09:30:23;100293.50;;;9.02;100.00
33075;BME280;19433;51.292;6.868;2023-03-21T09:32:48;100299.88;;;9.02;100.00
33075;BME280;19433;51.292;6.868;2023-03-21T09:35:18;100290.69;;;9.16;100.00
33075;BME280;19433;51.292;6.868;2023-03-21T09:37:44;100299.06;;;9.30;100.00
33075;BME280;19433;51.292;6.868;2023-03-21T09:40:22;100303.16;;;9.40;100.00
33075;BME280;19433;51.292;6.868;2023-03-21T09:43:03;100296.03;;;9.52;100.00
33075;BME280;19433;51.292;6.868;2023-03-21T09:46:08;100306.84;;;9.54;100.00
33075;BME280;19433;51.292;6.868;2023-03-21T09:48:38;100310.72;;;9.60;100.00
33075;BME280;19433;51.292;6.868;2023-03-21T09:51:09;100302.38;;;9.53;100.00
33075;BME280;19433;51.292;6.868;2023-03-21T09:53:40;100300.63;;;9.80;100.00
33075;BME280;19433;51.292;6.868;2023-03-21T09:56:08;100305.94;;;9.75;100.00
33075;BME280;19433;51.292;6.868;2023-03-21T09:58:48;100313.47;;;9.60;100.00
33075;BME280;19433;51.292;6.868;2023-03-21T10:01:37;100307.34;;;9.64;100.00
33075;BME280;19433;51.292;6.868;2023-03-21T10:04:11;100304.03;;;9.75;100.00
33075;BME280;19433;51.292;6.868;2023-03-21T10:06:39;100296.34;;;9.71;100.00
33075;BME280;19433;51.292;6.868;2023-03-21T10:09:10;100302.47;;;9.66;100.00
33075;BME280;19433;51.292;6.868;2023-03-21T10:11:44;100291.16;;;9.89;100.00
33075;BME280;19433;51.292;6.868;2023-03-21T10:14:30;100279.84;;;9.77;100.00
33075;BME280;19433;51.292;6.868;2023-03-21T10:17:00;100289.31;;;10.09;100.00
33075;BME280;19433;51.292;6.868;2023-03-21T10:19:27;100296.88;;;10.29;100.00
33075;BME280;19433;51.292;6.868;2023-03-21T10:21:52;100289.56;;;10.14;100.00
33075;BME280;19433;51.292;6.868;2023-03-21T10:24:23;100283.94;;;9.95;100.00
33075;BME280;19433;51.292;6.868;2023-03-21T10:26:52;100278.69;;;9.65;100.00
33075;BME280;19433;51.292;6.868;2023-03-21T10:29:20;100277.28;;;9.76;100.00
33075;BME280;19433;51.292;6.868;2023-03-21T10:31:48;100277.56;;;9.53;100.00
33075;BME280;19433;51.292;6.868;2023-03-21T10:34:32;100261.06;;;9.25;100.00
33075;BME280;19433;51.292;6.868;2023-03-21T10:37:01;100251.09;;;9.59;100.00
33075;BME280;19433;51.292;6.868;2023-03-21T10:39:35;100246.09;;;9.41;100.00
33075;BME280;19433;51.292;6.868;2023-03-21T10:42:01;100246.44;;;9.66;100.00
33075;BME280;19433;51.292;6.868;2023-03-21T10:44:34;100244.28;;;10.02;100.00
33075;BME280;19433;51.292;6.868;2023-03-21T10:47:05;100231.50;;;9.95;100.00
33075;BME280;19433;51.292;6.868;2023-03-21T10:49:31;100233.00;;;9.91;100.00
33075;BME280;19433;51.292;6.868;2023-03-21T10:52:00;100230.84;;;9.86;100.00
33075;BME280;19433;51.292;6.868;2023-03-21T10:54:34;100227.69;;;9.89;100.00
33075;BME280;19433;51.292;6.868;2023-03-21T10:57:09;100217.09;;;9.99;100.00
33075;BME280;19433;51.292;6.868;2023-03-21T10:59:44;100217.31;;;9.98;100.00
33075;BME280;19433;51.292;6.868;2023-03-21T11:02:18;100213.50;;;9.99;100.00
33075;BME280;19433;51.292;6.868;2023-03-21T11:04:44;100201.22;;;10.14;100.00
33075;BME280;19433;51.292;6.868;2023-03-21T11:07:13;100198.13;;;10.44;100.00
33075;BME280;19433;51.292;6.868;2023-03-21T11:09:53;100194.72;;;11.27;100.00
33075;BME280;19433;51.292;6.868;2023-03-21T11:12:47;100206.72;;;11.73;100.00
33075;BME280;19433;51.292;6.868;2023-03-21T11:15:29;100210.78;;;11.70;99.41
33075;BME280;19433;51.292;6.868;2023-03-21T11:17:57;100199.81;;;11.17;100.00
33075;BME280;19433;51.292;6.868;2023-03-21T11:20:22;100201.31;;;11.26;100.00
33075;BME280;19433;51.292;6.868;2023-03-21T11:22:48;100197.28;;;11.22;100.00
33075;BME280;19433;51.292;6.868;2023-03-21T11:25:35;100198.31;;;11.41;100.00
33075;BME280;19433;51.292;6.868;2023-03-21T11:28:11;100202.34;;;11.45;99.63
33075;BME280;19433;51.292;6.868;2023-03-21T11:30:48;100200.22;;;11.41;97.34
33075;BME280;19433;51.292;6.868;2023-03-21T11:33:16;100197.47;;;11.21;99.17
33075;BME280;19433;51.292;6.868;2023-03-21T11:35:42;100189.16;;;11.41;96.50
33075;BME280;19433;51.292;6.868;2023-03-21T11:38:25;100194.38;;;11.75;96.89
33075;BME280;19433;51.292;6.868;2023-03-21T11:40:53;100196.75;;;12.16;95.13
33075;BME280;19433;51.292;6.868;2023-03-21T11:46:01;100187.22;;;12.68;90.58
33075;BME280;19433;51.292;6.868;2023-03-21T11:48:32;100200.25;;;12.37;90.98
33075;BME280;19433;51.292;6.868;2023-03-21T11:53:56;100192.16;;;11.26;97.91
33075;BME280;19433;51.292;6.868;2023-03-21T12:01:44;100186.00;;;11.17;98.64
33075;BME280;19433;51.292;6.868;2023-03-21T12:10:15;100181.53;;;11.30;98.26
33075;BME280;19433;51.292;6.868;2023-03-21T12:18:23;100183.50;;;10.83;99.47
33075;BME280;19433;51.292;6.868;2023-03-21T12:20:59;100177.97;;;10.70;100.00
33075;BME280;19433;51.292;6.868;2023-03-21T12:23:37;100190.06;;;10.49;100.00
33075;BME280;19433;51.292;6.868;2023-03-21T12:26:24;100182.38;;;10.25;100.00
33075;BME280;19433;51.292;6.868;2023-03-21T12:34:25;100167.81;;;9.76;100.00
33075;BME280;19433;51.292;6.868;2023-03-21T12:37:08;100163.69;;;9.66;100.00
33075;BME280;19433;51.292;6.868;2023-03-21T12:39:39;100162.50;;;9.81;100.00
33075;BME280;19433;51.292;6.868;2023-03-21T12:45:03;100157.84;;;9.88;100.00
33075;BME280;19433;51.292;6.868;2023-03-21T12:47:34;100149.63;;;10.15;100.00
33075;BME280;19433;51.292;6.868;2023-03-21T12:50:18;100149.50;;;10.36;100.00
33075;BME280;19433;51.292;6.868;2023-03-21T12:52:49;100147.38;;;10.51;100.00
33075;BME280;19433;51.292;6.868;2023-03-21T12:57:46;100146.72;;;10.82;100.00
33075;BME280;19433;51.292;6.868;2023-03-21T13:00:22;100130.34;;;10.94;100.00
33075;BME280;19433;51.292;6.868;2023-03-21T13:03:03;100131.19;;;10.95;100.00
33075;BME280;19433;51.292;6.868;2023-03-21T13:05:34;100135.00;;;10.93;100.00
33075;BME280;19433;51.292;6.868;2023-03-21T13:08:45;100134.63;;;10.83;100.00
33075;BME280;19433;51.292;6.868;2023-03-21T13:11:15;100122.91;;;10.55;100.00
33075;BME280;19433;51.292;6.868;2023-03-21T13:14:07;100109.97;;;10.62;100.00
33075;BME280;19433;51.292;6.868;2023-03-21T13:16:40;100103.81;;;10.60;100.00
33075;BME280;19433;51.292;6.868;2023-03-21T13:21:59;100090.78;;;10.93;100.00
33075;BME280;19433;51.292;6.868;2023-03-21T13:24:40;100091.41;;;11.02;99.48
33075;BME280;19433;51.292;6.868;2023-03-21T13:30:03;100090.28;;;11.16;99.05
33075;BME280;19433;51.292;6.868;2023-03-21T13:32:38;100089.53;;;11.47;96.92
33075;BME280;19433;51.292;6.868;2023-03-21T13:37:34;100078.31;;;11.80;94.00
33075;BME280;19433;51.292;6.868;2023-03-21T13:40:22;100077.63;;;11.91;93.14
33075;BME280;19433;51.292;6.868;2023-03-21T13:42:54;100086.59;;;12.43;90.27
33075;BME280;19433;51.292;6.868;2023-03-21T13:45:29;100076.31;;;12.50;90.05
33075;BME280;19433;51.292;6.868;2023-03-21T13:47:57;100069.53;;;12.46;89.53
33075;BME280;19433;51.292;6.868;2023-03-21T13:53:17;100059.63;;;11.76;91.65
33075;BME280;19433;51.292;6.868;2023-03-21T13:55:45;100058.72;;;11.82;90.95
33075;BME280;19433;51.292;6.868;2023-03-21T14:01:26;100055.97;;;11.82;92.73
33075;BME280;19433;51.292;6.868;2023-03-21T14:04:16;100055.75;;;11.83;92.23
33075;BME280;19433;51.292;6.868;2023-03-21T14:06:55;100052.63;;;11.67;91.63
33075;BME280;19433;51.292;6.868;2023-03-21T14:09:27;100050.97;;;11.97;90.98
33075;BME280;19433;51.292;6.868;2023-03-21T14:11:54;100038.72;;;12.11;90.66
33075;BME280;19433;51.292;6.868;2023-03-21T14:14:23;100056.06;;;12.25;89.71
33075;BME280;19433;51.292;6.868;2023-03-21T14:16:54;100046.34;;;12.16;89.92